Time;durP1;ratioP1;P1;durP2;ratioP2;P2;SDS_P1;SDS_P2;PMS_P1;PMS_P2;Temp;Humidity;BMP_temperature;BMP_pressure;BME280_temperature;BME280_humidity;BME280_pressure;Samples;Min_cycle;Max_cycle;Signal;HPM_P1;HPM_P2
2023/01/07 00:01:06;;;;;;;2.00;1.90;;;8.90;99.90;;;;;;4985976;28;20192;-81
2023/01/07 00:03:32;;;;;;;2.28;2.17;;;8.90;99.90;;;;;;4987505;28;20254;-81
2023/01/07 00:06:02;;;;;;;2.75;2.10;;;8.90;99.90;;;;;;4985369;28;20192;-81
2023/01/07 00:08:29;;;;;;;1.90;1.80;;;8.90;99.90;;;;;;4984316;28;20232;-81
2023/01/07 00:10:55;;;;;;;2.60;2.10;;;8.90;99.90;;;;;;4985481;28;20177;-81
2023/01/07 00:13:20;;;;;;;2.42;2.22;;;8.90;99.90;;;;;;4984645;28;20201;-81
2023/01/07 00:15:46;;;;;;;2.60;2.40;;;8.90;99.90;;;;;;4984789;28;20235;-81
2023/01/07 00:18:12;;;;;;;2.65;2.40;;;8.90;99.90;;;;;;4983668;28;20196;-81
2023/01/07 00:20:37;;;;;;;2.35;1.90;;;8.80;99.90;;;;;;4984177;28;20288;-81
2023/01/07 00:23:03;;;;;;;2.80;2.00;;;8.80;99.90;;;;;;4984117;28;20207;-80
2023/01/07 00:25:29;;;;;;;3.08;2.28;;;8.70;99.90;;;;;;4984103;28;20185;-80
2023/01/07 00:27:54;;;;;;;3.05;2.47;;;8.70;99.90;;;;;;4983838;28;20209;-80
2023/01/07 00:30:20;;;;;;;2.38;1.73;;;8.80;99.90;;;;;;4985403;28;20180;-80
2023/01/07 00:32:58;;;;;;;2.08;1.98;;;8.80;99.90;;;;;;4982959;28;20208;-80
2023/01/07 00:35:24;;;;;;;2.55;2.00;;;8.80;99.90;;;;;;4982896;28;20659;-80
2023/01/07 00:37:51;;;;;;;2.22;2.05;;;8.80;99.90;;;;;;4982399;28;20185;-80
2023/01/07 00:40:18;;;;;;;1.90;1.80;;;8.80;99.90;;;;;;4982720;28;20235;-80
2023/01/07 00:42:53;;;;;;;2.10;2.00;;;8.80;99.90;;;;;;4984384;28;20687;-80
2023/01/07 00:45:19;;;;;;;2.25;1.98;;;8.80;99.90;;;;;;4984600;28;20168;-80
2023/01/07 00:47:44;;;;;;;2.10;2.00;;;8.80;99.90;;;;;;4982208;28;20181;-80
2023/01/07 00:50:10;;;;;;;2.30;2.10;;;8.80;99.90;;;;;;4982085;28;20203;-80
2023/01/07 00:52:35;;;;;;;2.42;2.25;;;8.80;99.90;;;;;;4984744;28;20255;-80
2023/01/07 00:55:01;;;;;;;3.58;1.90;;;8.90;99.90;;;;;;4981627;28;20184;-80
2023/01/07 00:57:27;;;;;;;2.15;1.98;;;8.90;99.90;;;;;;4981768;28;20191;-80
2023/01/07 00:59:52;;;;;;;2.00;1.90;;;8.90;99.90;;;;;;4980361;28;20558;-80
2023/01/07 01:02:18;;;;;;;2.47;1.92;;;8.80;99.90;;;;;;4982188;28;20203;-80
2023/01/07 01:04:44;;;;;;;2.03;1.92;;;8.90;99.90;;;;;;4981555;28;20272;-80
2023/01/07 01:07:09;;;;;;;2.00;1.90;;;8.90;99.90;;;;;;4982253;28;20176;-80
2023/01/07 01:09:35;;;;;;;1.88;1.75;;;8.90;99.90;;;;;;4981506;28;20209;-80
2023/01/07 01:12:00;;;;;;;6.20;1.90;;;9.00;99.90;;;;;;4980978;28;20516;-80
2023/01/07 01:14:26;;;;;;;3.47;1.83;;;9.00;99.90;;;;;;4981073;28;20220;-80
2023/01/07 01:16:51;;;;;;;2.00;1.80;;;8.90;99.90;;;;;;4981380;28;20177;-80
2023/01/07 01:19:17;;;;;;;2.20;2.00;;;8.90;99.90;;;;;;4981860;28;20259;-80
2023/01/07 01:21:43;;;;;;;2.17;1.95;;;8.90;99.90;;;;;;4981912;28;20212;-80
2023/01/07 01:24:08;;;;;;;1.73;1.63;;;8.80;99.90;;;;;;4980466;28;20287;-80
2023/01/07 01:26:34;;;;;;;1.65;1.63;;;8.90;99.90;;;;;;4980250;28;20216;-80
2023/01/07 01:29:00;;;;;;;1.70;1.60;;;8.90;99.90;;;;;;4980851;28;20205;-80
2023/01/07 01:31:25;;;;;;;1.73;1.63;;;8.80;99.90;;;;;;4982803;28;20180;-80
2023/01/07 01:33:55;;;;;;;3.05;1.70;;;8.80;99.90;;;;;;4981300;28;20283;-80
2023/01/07 01:36:21;;;;;;;2.35;1.70;;;8.80;99.90;;;;;;4980586;28;20663;-80
2023/01/07 01:38:47;;;;;;;1.80;1.70;;;8.80;99.90;;;;;;4980436;28;20296;-80
2023/01/07 01:41:15;;;;;;;1.75;1.65;;;8.80;99.90;;;;;;4980904;28;20197;-80
2023/01/07 01:43:43;;;;;;;3.15;1.80;;;8.80;99.90;;;;;;4980502;28;20205;-80
2023/01/07 01:46:26;;;;;;;1.92;1.63;;;8.80;99.90;;;;;;4980512;28;20205;-80
2023/01/07 01:49:22;;;;;;;1.88;1.77;;;8.80;99.90;;;;;;4979819;28;20207;-80
2023/01/07 01:51:54;;;;;;;2.78;1.80;;;8.80;99.90;;;;;;4979036;28;20191;-80
2023/01/07 01:54:20;;;;;;;2.13;1.52;;;8.80;99.90;;;;;;4979548;28;20247;-80
2023/01/07 01:56:49;;;;;;;2.03;1.85;;;8.80;99.90;;;;;;4979917;28;20177;-80
2023/01/07 01:59:19;;;;;;;3.22;1.50;;;8.80;99.90;;;;;;4981142;28;20189;-80
2023/01/07 02:01:45;;;;;;;1.88;1.77;;;8.90;99.90;;;;;;4979534;28;20256;-80
2023/01/07 02:04:14;;;;;;;1.80;1.70;;;8.90;99.90;;;;;;4979550;28;20240;-80
2023/01/07 02:06:49;;;;;;;1.77;1.67;;;8.90;99.90;;;;;;4980349;28;20236;-80
2023/01/07 02:09:14;;;;;;;1.30;1.30;;;8.90;99.90;;;;;;4980283;28;20211;-80
2023/01/07 02:11:57;;;;;;;1.85;1.60;;;8.90;99.90;;;;;;4979874;28;20193;-80
2023/01/07 02:14:36;;;;;;;1.60;1.50;;;8.90;99.90;;;;;;4979115;28;20240;-80
2023/01/07 02:17:41;;;;;;;1.75;1.65;;;8.90;99.90;;;;;;4979179;28;20643;-80
2023/01/07 02:20:13;;;;;;;1.60;1.50;;;8.80;99.90;;;;;;4980164;28;20192;-80
2023/01/07 02:22:57;;;;;;;1.60;1.50;;;8.80;99.90;;;;;;4978886;28;20212;-80
2023/01/07 02:25:47;;;;;;;1.30;1.30;;;8.90;99.90;;;;;;4979868;28;20181;-80
2023/01/07 02:28:31;;;;;;;2.42;1.55;;;8.90;99.90;;;;;;4978857;28;20205;-80
2023/01/07 02:31:35;;;;;;;1.23;1.23;;;8.90;99.90;;;;;;4979113;28;20275;-80
2023/01/07 02:34:14;;;;;;;2.13;1.55;;;8.90;99.90;;;;;;4978252;28;20205;-80
2023/01/07 02:36:46;;;;;;;1.77;1.67;;;8.80;99.90;;;;;;4979003;28;20181;-80
2023/01/07 02:39:38;;;;;;;2.63;1.55;;;8.90;99.90;;;;;;4978600;28;20255;-80
2023/01/07 02:42:13;;;;;;;1.50;1.40;;;8.90;99.90;;;;;;4978194;28;20185;-80
2023/01/07 02:44:57;;;;;;;1.50;1.40;;;8.90;99.90;;;;;;4977283;28;20177;-80
2023/01/07 02:47:33;;;;;;;2.35;1.40;;;8.90;99.90;;;;;;4978601;28;20184;-80
2023/01/07 02:49:58;;;;;;;4.03;1.45;;;8.90;99.90;;;;;;4979526;28;20208;-80
2023/01/07 02:52:27;;;;;;;2.25;1.40;;;8.80;99.90;;;;;;4978027;28;20538;-80
2023/01/07 02:55:36;;;;;;;1.50;1.20;;;8.70;99.90;;;;;;4978657;28;20184;-80
2023/01/07 02:58:26;;;;;;;1.25;1.20;;;8.80;99.90;;;;;;4977907;28;20208;-80
2023/01/07 03:01:13;;;;;;;1.20;1.20;;;8.70;99.90;;;;;;4978361;28;20184;-80
2023/01/07 03:03:50;;;;;;;1.55;1.40;;;8.70;99.90;;;;;;4979533;28;20196;-80
2023/01/07 03:06:34;;;;;;;1.92;1.60;;;8.70;99.90;;;;;;4979195;28;20163;-80
2023/01/07 03:09:20;;;;;;;1.30;1.20;;;8.80;99.90;;;;;;4977451;28;20675;-80
2023/01/07 03:12:08;;;;;;;1.13;1.13;;;8.70;99.90;;;;;;4976173;28;20189;-80
2023/01/07 03:14:57;;;;;;;1.42;1.25;;;8.80;99.90;;;;;;4978871;28;20184;-80
2023/01/07 03:17:33;;;;;;;1.85;1.15;;;8.70;99.90;;;;;;4976707;28;20173;-80
2023/01/07 03:20:02;;;;;;;1.70;1.20;;;8.70;99.90;;;;;;4978915;28;20168;-80
2023/01/07 03:22:32;;;;;;;1.30;1.27;;;8.80;99.90;;;;;;4975999;28;20212;-80
2023/01/07 03:25:00;;;;;;;1.92;1.20;;;8.80;99.90;;;;;;4977356;28;20195;-80
2023/01/07 03:27:29;;;;;;;1.67;1.20;;;8.70;99.90;;;;;;4976747;28;20180;-80
2023/01/07 03:29:55;;;;;;;1.30;1.30;;;8.70;99.90;;;;;;4978438;28;20200;-80
2023/01/07 03:33:13;;;;;;;1.30;1.30;;;8.70;99.90;;;;;;4976476;28;20295;-80
2023/01/07 03:35:42;;;;;;;1.10;1.10;;;8.70;99.90;;;;;;4965800;28;20199;-80
2023/01/07 03:38:08;;;;;;;1.27;1.02;;;8.70;99.90;;;;;;4976734;28;20258;-80
2023/01/07 03:40:35;;;;;;;1.45;1.35;;;8.70;99.90;;;;;;4976805;28;20640;-80
2023/01/07 03:43:00;;;;;;;1.25;1.10;;;8.70;99.90;;;;;;4978180;28;20205;-80
2023/01/07 03:45:27;;;;;;;1.13;1.02;;;8.70;99.90;;;;;;4976641;28;20574;-80
2023/01/07 03:47:55;;;;;;;1.77;1.33;;;8.70;99.90;;;;;;4976632;28;20172;-80
2023/01/07 03:50:21;;;;;;;1.23;1.20;;;8.70;99.90;;;;;;4975640;28;20272;-80
2023/01/07 03:52:48;;;;;;;1.45;1.25;;;8.70;99.90;;;;;;4976715;28;20201;-80
2023/01/07 03:55:14;;;;;;;1.73;1.30;;;8.70;99.90;;;;;;4978450;28;20180;-80
2023/01/07 03:57:39;;;;;;;1.23;1.20;;;8.70;99.90;;;;;;4976282;28;20200;-80
2023/01/07 04:00:08;;;;;;;1.23;1.10;;;8.60;99.90;;;;;;4977059;28;20181;-80
2023/01/07 04:02:33;;;;;;;2.08;1.10;;;8.70;99.90;;;;;;4976036;28;20300;-80
2023/01/07 04:04:59;;;;;;;1.65;1.25;;;8.70;99.90;;;;;;4974848;28;20217;-80
2023/01/07 04:07:24;;;;;;;1.20;1.20;;;8.70;99.90;;;;;;4976053;28;20212;-80
2023/01/07 04:09:50;;;;;;;2.05;1.05;;;8.70;99.90;;;;;;4975938;28;20229;-80
2023/01/07 04:12:17;;;;;;;1.10;1.10;;;8.70;99.90;;;;;;4975686;28;20173;-80
2023/01/07 04:14:42;;;;;;;1.00;1.00;;;8.80;99.90;;;;;;4976105;28;20289;-80
2023/01/07 04:17:08;;;;;;;1.40;1.27;;;8.70;99.90;;;;;;4976399;28;20194;-80
2023/01/07 04:19:34;;;;;;;1.20;1.20;;;8.70;99.90;;;;;;4977329;28;20177;-80
2023/01/07 04:21:59;;;;;;;1.40;1.30;;;8.70;99.90;;;;;;4976410;28;20244;-80
2023/01/07 04:24:25;;;;;;;1.38;1.27;;;8.70;99.90;;;;;;4975965;28;20183;-80
2023/01/07 04:26:50;;;;;;;0.98;0.95;;;8.70;99.90;;;;;;4975343;28;20223;-80
2023/01/07 04:29:16;;;;;;;0.95;0.95;;;8.80;99.90;;;;;;4975517;28;20618;-80
2023/01/07 04:31:42;;;;;;;1.77;1.33;;;8.70;99.90;;;;;;4975398;28;20177;-80
2023/01/07 04:34:08;;;;;;;1.13;1.13;;;8.70;99.90;;;;;;4976964;28;20197;-80
2023/01/07 04:36:34;;;;;;;1.20;1.20;;;8.70;99.90;;;;;;4980627;28;20173;-80
2023/01/07 04:39:00;;;;;;;1.55;1.20;;;8.70;99.90;;;;;;4979161;28;20189;-80
2023/01/07 04:41:26;;;;;;;1.27;1.17;;;8.70;99.90;;;;;;4979498;28;20185;-80
2023/01/07 04:43:51;;;;;;;1.40;1.30;;;8.70;99.90;;;;;;4979194;28;20216;-80
2023/01/07 04:46:17;;;;;;;2.33;1.40;;;8.70;99.90;;;;;;4978588;28;20181;-80
2023/01/07 04:48:42;;;;;;;1.33;1.23;;;8.70;99.90;;;;;;4979267;28;20205;-80
2023/01/07 04:51:08;;;;;;;1.40;1.30;;;8.70;99.90;;;;;;4978312;28;20272;-80
2023/01/07 04:53:33;;;;;;;1.60;1.50;;;8.70;99.90;;;;;;4978310;28;20204;-80
2023/01/07 04:55:59;;;;;;;1.55;1.45;;;8.70;99.90;;;;;;4978614;28;20181;-80
2023/01/07 04:58:24;;;;;;;2.15;1.38;;;8.60;99.90;;;;;;4978878;28;20268;-80
2023/01/07 05:00:52;;;;;;;1.70;1.60;;;8.60;99.90;;;;;;4978440;28;20215;-80
2023/01/07 05:03:18;;;;;;;1.63;1.50;;;8.70;99.90;;;;;;4978695;28;20720;-80
2023/01/07 05:05:44;;;;;;;1.70;1.60;;;8.60;99.90;;;;;;4980633;28;20177;-80
2023/01/07 05:08:10;;;;;;;1.80;1.70;;;8.60;99.90;;;;;;4980935;28;20184;-80
2023/01/07 05:10:35;;;;;;;1.75;1.65;;;8.60;99.90;;;;;;4979491;28;20177;-80
2023/01/07 05:13:04;;;;;;;1.70;1.60;;;8.60;99.90;;;;;;4977819;28;20207;-79
2023/01/07 05:15:30;;;;;;;1.90;1.80;;;8.60;99.90;;;;;;4977764;28;20188;-79
2023/01/07 05:17:55;;;;;;;1.90;1.80;;;8.70;99.90;;;;;;4977745;28;20185;-79
2023/01/07 05:20:21;;;;;;;2.95;1.80;;;8.70;99.90;;;;;;4977714;28;20173;-79
2023/01/07 05:22:46;;;;;;;2.00;1.90;;;8.70;99.90;;;;;;4977311;28;20197;-79
2023/01/07 05:25:12;;;;;;;2.42;2.10;;;8.70;99.90;;;;;;4978646;28;20177;-79
2023/01/07 05:27:37;;;;;;;2.40;2.20;;;8.70;99.90;;;;;;4978625;28;20201;-79
2023/01/07 05:30:04;;;;;;;2.28;2.17;;;8.70;99.90;;;;;;4978672;28;20199;-79
2023/01/07 05:32:29;;;;;;;2.00;1.90;;;8.70;99.90;;;;;;4977906;28;20201;-79
2023/01/07 05:34:55;;;;;;;2.17;2.00;;;8.70;99.90;;;;;;4978051;28;20181;-79
2023/01/07 05:37:20;;;;;;;2.30;2.10;;;8.70;99.90;;;;;;4979340;28;20180;-79
2023/01/07 05:39:46;;;;;;;2.28;2.08;;;8.70;99.90;;;;;;4979427;28;20239;-79
2023/01/07 05:42:11;;;;;;;2.28;2.10;;;8.70;99.90;;;;;;4976999;28;20276;-79
2023/01/07 05:44:37;;;;;;;2.58;2.38;;;8.60;99.90;;;;;;4976945;28;20229;-79
2023/01/07 05:47:02;;;;;;;2.15;2.05;;;8.60;99.90;;;;;;4977219;28;20227;-79
